sensor_id;sensor_type;location;lat;lon;timestamp;temperature;humidity
55207;DHT22;41079;52.856;6.534;2022-09-20T00:01:30;9.50;99.90
55207;DHT22;41079;52.856;6.534;2022-09-20T00:04:01;9.40;99.90
55207;DHT22;41079;52.856;6.534;2022-09-20T00:06:30;9.30;99.90
55207;DHT22;41079;52.856;6.534;2022-09-20T00:08:56;9.30;99.90
55207;DHT22;41079;52.856;6.534;2022-09-20T00:11:26;9.20;99.90
55207;DHT22;41079;52.856;6.534;2022-09-20T00:13:54;9.20;99.90
55207;DHT22;41079;52.856;6.534;2022-09-20T00:16:32;9.20;99.90
55207;DHT22;41079;52.856;6.534;2022-09-20T00:19:00;9.20;99.90
55207;DHT22;41079;52.856;6.534;2022-09-20T00:21:29;9.10;99.90
55207;DHT22;41079;52.856;6.534;2022-09-20T00:23:56;9.10;99.90
55207;DHT22;41079;52.856;6.534;2022-09-20T00:26:25;9.10;99.90
55207;DHT22;41079;52.856;6.534;2022-09-20T00:28:51;9.00;99.90
55207;DHT22;41079;52.856;6.534;2022-09-20T00:31:17;9.00;99.90
55207;DHT22;41079;52.856;6.534;2022-09-20T00:33:44;9.00;99.90
55207;DHT22;41079;52.856;6.534;2022-09-20T00:36:28;9.00;99.90
55207;DHT22;41079;52.856;6.534;2022-09-20T00:38:59;8.90;99.90
55207;DHT22;41079;52.856;6.534;2022-09-20T00:41:26;8.90;99.90
55207;DHT22;41079;52.856;6.534;2022-09-20T00:43:52;8.80;99.90
55207;DHT22;41079;52.856;6.534;2022-09-20T00:46:28;8.70;99.90
55207;DHT22;41079;52.856;6.534;2022-09-20T00:49:26;8.70;99.90
55207;DHT22;41079;52.856;6.534;2022-09-20T00:51:55;8.60;99.90
55207;DHT22;41079;52.856;6.534;2022-09-20T00:54:22;8.60;99.90
55207;DHT22;41079;52.856;6.534;2022-09-20T00:56:50;8.50;99.90
55207;DHT22;41079;52.856;6.534;2022-09-20T00:59:26;8.50;99.90
55207;DHT22;41079;52.856;6.534;2022-09-20T01:01:57;8.50;99.90
55207;DHT22;41079;52.856;6.534;2022-09-20T01:04:24;8.60;99.90
55207;DHT22;41079;52.856;6.534;2022-09-20T01:06:53;8.60;99.90
55207;DHT22;41079;52.856;6.534;2022-09-20T01:09:20;8.60;99.90
55207;DHT22;41079;52.856;6.534;2022-09-20T01:11:47;8.60;99.90
55207;DHT22;41079;52.856;6.534;2022-09-20T01:14:14;8.60;99.90
55207;DHT22;41079;52.856;6.534;2022-09-20T01:16:43;8.60;99.90
55207;DHT22;41079;52.856;6.534;2022-09-20T01:19:30;8.50;99.90
55207;DHT22;41079;52.856;6.534;2022-09-20T01:22:02;8.50;99.90
55207;DHT22;41079;52.856;6.534;2022-09-20T01:24:45;8.50;99.90
55207;DHT22;41079;52.856;6.534;2022-09-20T01:27:21;8.50;99.90
55207;DHT22;41079;52.856;6.534;2022-09-20T01:30:12;8.50;99.90
55207;DHT22;41079;52.856;6.534;2022-09-20T01:35:33;8.60;99.90
55207;DHT22;41079;52.856;6.534;2022-09-20T01:41:24;8.60;99.90
55207;DHT22;41079;52.856;6.534;2022-09-20T01:44:09;8.50;99.90
55207;DHT22;41079;52.856;6.534;2022-09-20T01:46:37;8.50;99.90
55207;DHT22;41079;52.856;6.534;2022-09-20T02:11:10;8.60;99.90
55207;DHT22;41079;52.856;6.534;2022-09-20T02:16:35;8.60;99.90
55207;DHT22;41079;52.856;6.534;2022-09-20T02:19:27;8.60;99.90
55207;DHT22;41079;52.856;6.534;2022-09-20T02:33:05;8.50;99.90
55207;DHT22;41079;52.856;6.534;2022-09-20T02:35:32;8.40;99.90
55207;DHT22;41079;52.856;6.534;2022-09-20T02:49:31;8.30;99.90
55207;DHT22;41079;52.856;6.534;2022-09-20T03:00:59;8.30;99.90
55207;DHT22;41079;52.856;6.534;2022-09-20T03:09:37;8.20;99.90
55207;DHT22;41079;52.856;6.534;2022-09-20T03:12:25;8.10;99.90
55207;DHT22;41079;52.856;6.534;2022-09-20T03:18:25;8.10;99.90
55207;DHT22;41079;52.856;6.534;2022-09-20T03:32:30;8.30;99.90
55207;DHT22;41079;52.856;6.534;2022-09-20T03:40:40;8.50;99.90
55207;DHT22;41079;52.856;6.534;2022-09-20T03:46:43;8.50;99.90
55207;DHT22;41079;52.856;6.534;2022-09-20T03:49:52;8.60;99.90
55207;DHT22;41079;52.856;6.534;2022-09-20T03:52:38;8.70;99.90
55207;DHT22;41079;52.856;6.534;2022-09-20T04:03:45;9.00;99.90
55207;DHT22;41079;52.856;6.534;2022-09-20T04:12:00;9.20;99.90
55207;DHT22;41079;52.856;6.534;2022-09-20T04:14:36;9.30;99.90
55207;DHT22;41079;52.856;6.534;2022-09-20T04:20:12;9.40;99.90
55207;DHT22;41079;52.856;6.534;2022-09-20T04:22:40;9.40;99.90
55207;DHT22;41079;52.856;6.534;2022-09-20T04:25:14;9.50;99.90
55207;DHT22;41079;52.856;6.534;2022-09-20T04:28:01;9.50;99.90
55207;DHT22;41079;52.856;6.534;2022-09-20T04:30:30;9.50;99.90
55207;DHT22;41079;52.856;6.534;2022-09-20T04:33:10;9.60;99.90
55207;DHT22;41079;52.856;6.534;2022-09-20T04:44:50;9.80;99.90
55207;DHT22;41079;52.856;6.534;2022-09-20T04:50:22;9.90;99.90
55207;DHT22;41079;52.856;6.534;2022-09-20T05:06:37;10.00;99.90
55207;DHT22;41079;52.856;6.534;2022-09-20T05:15:06;9.80;99.90
55207;DHT22;41079;52.856;6.534;2022-09-20T05:17:44;9.70;99.90
55207;DHT22;41079;52.856;6.534;2022-09-20T05:20:45;9.70;99.90
55207;DHT22;41079;52.856;6.534;2022-09-20T05:29:01;9.60;99.90
55207;DHT22;41079;52.856;6.534;2022-09-20T05:31:40;9.60;99.90
55207;DHT22;41079;52.856;6.534;2022-09-20T05:34:19;9.60;99.90
55207;DHT22;41079;52.856;6.534;2022-09-20T05:37:15;9.50;99.90
55207;DHT22;41079;52.856;6.534;2022-09-20T05:39:51;9.60;99.90
55207;DHT22;41079;52.856;6.534;2022-09-20T05:42:24;9.70;99.90
55207;DHT22;41079;52.856;6.534;2022-09-20T05:54:07;10.10;99.90
55207;DHT22;41079;52.856;6.534;2022-09-20T05:59:59;10.30;99.90
55207;DHT22;41079;52.856;6.534;2022-09-20T06:05:45;10.30;99.90
55207;DHT22;41079;52.856;6.534;2022-09-20T06:08:32;10.40;99.90
55207;DHT22;41079;52.856;6.534;2022-09-20T06:16:52;10.50;99.90
55207;DHT22;41079;52.856;6.534;2022-09-20T06:19:47;10.60;99.90
55207;DHT22;41079;52.856;6.534;2022-09-20T06:22:33;10.60;99.90
55207;DHT22;41079;52.856;6.534;2022-09-20T06:25:09;10.70;99.90
55207;DHT22;41079;52.856;6.534;2022-09-20T06:28:27;10.70;99.90
55207;DHT22;41079;52.856;6.534;2022-09-20T06:30:49;10.80;99.90
55207;DHT22;41079;52.856;6.534;2022-09-20T06:33:21;10.80;99.90
55207;DHT22;41079;52.856;6.534;2022-09-20T06:36:03;10.80;99.90
55207;DHT22;41079;52.856;6.534;2022-09-20T06:41:49;10.80;99.90
55207;DHT22;41079;52.856;6.534;2022-09-20T06:44:15;10.80;99.90
55207;DHT22;41079;52.856;6.534;2022-09-20T06:46:43;10.80;99.90
55207;DHT22;41079;52.856;6.534;2022-09-20T06:49:09;10.80;99.90
55207;DHT22;41079;52.856;6.534;2022-09-20T06:51:36;10.70;99.90
55207;DHT22;41079;52.856;6.534;2022-09-20T06:54:03;10.70;99.90
55207;DHT22;41079;52.856;6.534;2022-09-20T06:56:31;10.70;99.90
55207;DHT22;41079;52.856;6.534;2022-09-20T06:59:09;10.60;99.90
55207;DHT22;41079;52.856;6.534;2022-09-20T07:02:14;10.60;99.90
55207;DHT22;41079;52.856;6.534;2022-09-20T07:04:39;10.60;99.90
55207;DHT22;41079;52.856;6.534;2022-09-20T07:07:06;10.60;99.90
55207;DHT22;41079;52.856;6.534;2022-09-20T07:09:33;10.60;99.90
55207;DHT22;41079;52.856;6.534;2022-09-20T07:11:58;10.60;99.90
55207;DHT22;41079;52.856;6.534;2022-09-20T07:14:25;10.70;99.90
55207;DHT22;41079;52.856;6.534;2022-09-20T07:16:51;11.00;99.90
55207;DHT22;41079;52.856;6.534;2022-09-20T07:19:17;11.30;99.90
55207;DHT22;41079;52.856;6.534;2022-09-20T07:21:43;11.60;99.90
55207;DHT22;41079;52.856;6.534;2022-09-20T07:24:09;12.00;99.90
55207;DHT22;41079;52.856;6.534;2022-09-20T07:26:35;12.10;99.90
55207;DHT22;41079;52.856;6.534;2022-09-20T07:29:01;12.40;99.90
55207;DHT22;41079;52.856;6.534;2022-09-20T07:31:28;12.50;99.90
55207;DHT22;41079;52.856;6.534;2022-09-20T07:33:54;12.60;99.90
55207;DHT22;41079;52.856;6.534;2022-09-20T07:36:19;12.60;99.90
55207;DHT22;41079;52.856;6.534;2022-09-20T07:38:49;12.60;99.90
55207;DHT22;41079;52.856;6.534;2022-09-20T07:41:16;12.70;99.90
55207;DHT22;41079;52.856;6.534;2022-09-20T07:43:44;12.70;99.90
55207;DHT22;41079;52.856;6.534;2022-09-20T07:46:10;12.70;99.90
55207;DHT22;41079;52.856;6.534;2022-09-20T07:48:39;12.80;99.90
55207;DHT22;41079;52.856;6.534;2022-09-20T07:51:14;12.90;99.90
55207;DHT22;41079;52.856;6.534;2022-09-20T07:53:39;13.10;99.90
55207;DHT22;41079;52.856;6.534;2022-09-20T07:56:19;13.20;99.90
55207;DHT22;41079;52.856;6.534;2022-09-20T07:58:45;13.40;99.90
55207;DHT22;41079;52.856;6.534;2022-09-20T08:01:12;13.60;99.90
55207;DHT22;41079;52.856;6.534;2022-09-20T08:03:38;13.70;99.90
55207;DHT22;41079;52.856;6.534;2022-09-20T08:06:10;13.80;99.90
55207;DHT22;41079;52.856;6.534;2022-09-20T08:08:37;13.90;99.90
55207;DHT22;41079;52.856;6.534;2022-09-20T08:11:05;14.00;99.90
55207;DHT22;41079;52.856;6.534;2022-09-20T08:13:43;14.00;99.90
55207;DHT22;41079;52.856;6.534;2022-09-20T08:16:10;14.00;99.90
55207;DHT22;41079;52.856;6.534;2022-09-20T08:18:37;14.20;99.90
55207;DHT22;41079;52.856;6.534;2022-09-20T08:21:04;14.30;99.90
55207;DHT22;41079;52.856;6.534;2022-09-20T08:23:36;14.30;99.90
55207;DHT22;41079;52.856;6.534;2022-09-20T08:26:04;14.50;99.90
55207;DHT22;41079;52.856;6.534;2022-09-20T08:28:30;14.60;99.90
55207;DHT22;41079;52.856;6.534;2022-09-20T08:31:03;14.60;99.90
55207;DHT22;41079;52.856;6.534;2022-09-20T08:33:30;14.60;99.90
55207;DHT22;41079;52.856;6.534;2022-09-20T08:35:55;14.50;99.90
55207;DHT22;41079;52.856;6.534;2022-09-20T08:38:25;14.50;99.90
55207;DHT22;41079;52.856;6.534;2022-09-20T08:41:00;14.50;99.90
55207;DHT22;41079;52.856;6.534;2022-09-20T08:43:31;14.60;99.90
55207;DHT22;41079;52.856;6.534;2022-09-20T08:45:59;14.80;99.90
55207;DHT22;41079;52.856;6.534;2022-09-20T08:48:29;15.10;99.90
55207;DHT22;41079;52.856;6.534;2022-09-20T08:50:58;15.30;99.90
55207;DHT22;41079;52.856;6.534;2022-09-20T08:53:26;15.40;99.90
55207;DHT22;41079;52.856;6.534;2022-09-20T08:55:54;15.60;99.90
55207;DHT22;41079;52.856;6.534;2022-09-20T08:58:23;15.70;99.90
55207;DHT22;41079;52.856;6.534;2022-09-20T09:00:48;15.80;99.90
55207;DHT22;41079;52.856;6.534;2022-09-20T09:03:15;15.90;99.90
55207;DHT22;41079;52.856;6.534;2022-09-20T09:05:44;16.00;99.90
55207;DHT22;41079;52.856;6.534;2022-09-20T09:08:16;16.20;99.90
55207;DHT22;41079;52.856;6.534;2022-09-20T09:10:49;16.30;99.90
55207;DHT22;41079;52.856;6.534;2022-09-20T09:16:52;16.70;99.90
55207;DHT22;41079;52.856;6.534;2022-09-20T09:19:30;16.90;99.90
55207;DHT22;41079;52.856;6.534;2022-09-20T09:22:03;16.90;99.90
55207;DHT22;41079;52.856;6.534;2022-09-20T09:24:29;16.90;99.90
55207;DHT22;41079;52.856;6.534;2022-09-20T09:27:13;17.00;99.90
55207;DHT22;41079;52.856;6.534;2022-09-20T09:29:50;17.10;99.90
55207;DHT22;41079;52.856;6.534;2022-09-20T09:32:23;17.30;99.90
55207;DHT22;41079;52.856;6.534;2022-09-20T09:34:48;17.30;99.90
55207;DHT22;41079;52.856;6.534;2022-09-20T09:37:26;17.50;99.90
55207;DHT22;41079;52.856;6.534;2022-09-20T09:42:31;17.80;99.90
55207;DHT22;41079;52.856;6.534;2022-09-20T09:45:32;17.90;99.90
55207;DHT22;41079;52.856;6.534;2022-09-20T09:48:17;18.10;99.90
55207;DHT22;41079;52.856;6.534;2022-09-20T09:50:43;18.00;99.90
55207;DHT22;41079;52.856;6.534;2022-09-20T09:53:15;18.20;98.30
55207;DHT22;41079;52.856;6.534;2022-09-20T09:56:06;18.10;97.00
55207;DHT22;41079;52.856;6.534;2022-09-20T10:01:06;18.30;98.20
55207;DHT22;41079;52.856;6.534;2022-09-20T10:03:45;18.60;99.80
55207;DHT22;41079;52.856;6.534;2022-09-20T10:09:31;19.00;98.20
55207;DHT22;41079;52.856;6.534;2022-09-20T10:12:18;19.10;98.80
55207;DHT22;41079;52.856;6.534;2022-09-20T10:14:58;19.10;95.60
55207;DHT22;41079;52.856;6.534;2022-09-20T10:23:51;16.30;98.90
55207;DHT22;41079;52.856;6.534;2022-09-20T10:29:21;14.00;99.90
55207;DHT22;41079;52.856;6.534;2022-09-20T10:32:16;13.40;99.90
55207;DHT22;41079;52.856;6.534;2022-09-20T10:37:23;13.00;99.90
55207;DHT22;41079;52.856;6.534;2022-09-20T10:40:26;13.00;99.90
55207;DHT22;41079;52.856;6.534;2022-09-20T10:48:44;13.50;99.90
55207;DHT22;41079;52.856;6.534;2022-09-20T10:53:59;13.90;99.90
55207;DHT22;41079;52.856;6.534;2022-09-20T10:56:39;14.10;99.90
55207;DHT22;41079;52.856;6.534;2022-09-20T11:07:52;14.60;99.90
55207;DHT22;41079;52.856;6.534;2022-09-20T11:12:54;14.90;99.90
55207;DHT22;41079;52.856;6.534;2022-09-20T11:15:33;15.20;99.90
55207;DHT22;41079;52.856;6.534;2022-09-20T11:24:39;15.70;99.90
55207;DHT22;41079;52.856;6.534;2022-09-20T11:27:31;15.90;99.90
55207;DHT22;41079;52.856;6.534;2022-09-20T11:36:34;16.10;99.90
55207;DHT22;41079;52.856;6.534;2022-09-20T11:39:36;16.50;99.90
55207;DHT22;41079;52.856;6.534;2022-09-20T11:42:35;16.70;99.90
55207;DHT22;41079;52.856;6.534;2022-09-20T11:45:12;17.20;99.90
55207;DHT22;41079;52.856;6.534;2022-09-20T11:47:43;17.60;99.90
55207;DHT22;41079;52.856;6.534;2022-09-20T11:56:15;17.90;99.90
55207;DHT22;41079;52.856;6.534;2022-09-20T11:58:56;18.20;99.90
55207;DHT22;41079;52.856;6.534;2022-09-20T12:01:31;18.60;97.40
55207;DHT22;41079;52.856;6.534;2022-09-20T12:04:01;19.00;99.60
55207;DHT22;41079;52.856;6.534;2022-09-20T12:06:34;19.20;99.50
55207;DHT22;41079;52.856;6.534;2022-09-20T12:09:03;19.50;98.50
55207;DHT22;41079;52.856;6.534;2022-09-20T12:11:35;19.60;98.40
55207;DHT22;41079;52.856;6.534;2022-09-20T12:14:16;19.80;91.50
55207;DHT22;41079;52.856;6.534;2022-09-20T12:16:47;19.40;94.00
55207;DHT22;41079;52.856;6.534;2022-09-20T12:26:58;19.30;94.50
55207;DHT22;41079;52.856;6.534;2022-09-20T12:32:00;18.60;95.10
55207;DHT22;41079;52.856;6.534;2022-09-20T12:39:27;17.30;94.50
55207;DHT22;41079;52.856;6.534;2022-09-20T12:42:21;17.00;95.80
55207;DHT22;41079;52.856;6.534;2022-09-20T12:47:25;16.70;95.40
55207;DHT22;41079;52.856;6.534;2022-09-20T12:49:54;16.60;96.30
55207;DHT22;41079;52.856;6.534;2022-09-20T12:58:33;16.60;96.70
55207;DHT22;41079;52.856;6.534;2022-09-20T13:08:48;17.70;95.80
55207;DHT22;41079;52.856;6.534;2022-09-20T13:14:17;18.50;94.70
55207;DHT22;41079;52.856;6.534;2022-09-20T13:17:15;18.70;95.10
55207;DHT22;41079;52.856;6.534;2022-09-20T13:19:47;18.80;93.80
55207;DHT22;41079;52.856;6.534;2022-09-20T13:22:36;18.80;93.70
55207;DHT22;41079;52.856;6.534;2022-09-20T13:25:12;19.20;93.30
55207;DHT22;41079;52.856;6.534;2022-09-20T13:28:05;19.30;90.50
55207;DHT22;41079;52.856;6.534;2022-09-20T13:30:28;19.20;87.30
55207;DHT22;41079;52.856;6.534;2022-09-20T13:33:13;19.10;86.50
55207;DHT22;41079;52.856;6.534;2022-09-20T13:35:39;18.70;85.90
55207;DHT22;41079;52.856;6.534;2022-09-20T13:38:07;18.10;89.20
55207;DHT22;41079;52.856;6.534;2022-09-20T13:40:35;17.90;90.60
55207;DHT22;41079;52.856;6.534;2022-09-20T13:45:53;17.90;90.00
55207;DHT22;41079;52.856;6.534;2022-09-20T13:48:24;18.20;90.70
55207;DHT22;41079;52.856;6.534;2022-09-20T13:50:50;18.50;87.90
55207;DHT22;41079;52.856;6.534;2022-09-20T13:53:17;18.70;87.40
55207;DHT22;41079;52.856;6.534;2022-09-20T13:55:43;19.00;88.00
55207;DHT22;41079;52.856;6.534;2022-09-20T13:58:25;18.90;84.40
55207;DHT22;41079;52.856;6.534;2022-09-20T14:01:03;18.40;84.40
55207;DHT22;41079;52.856;6.534;2022-09-20T14:03:32;17.80;82.10
55207;DHT22;41079;52.856;6.534;2022-09-20T14:06:00;17.40;83.90
55207;DHT22;41079;52.856;6.534;2022-09-20T14:08:32;17.20;86.60
55207;DHT22;41079;52.856;6.534;2022-09-20T14:11:13;17.50;89.50
55207;DHT22;41079;52.856;6.534;2022-09-20T14:13:42;17.90;89.60
55207;DHT22;41079;52.856;6.534;2022-09-20T14:16:09;18.30;88.00
55207;DHT22;41079;52.856;6.534;2022-09-20T14:18:38;18.50;85.40
55207;DHT22;41079;52.856;6.534;2022-09-20T14:21:06;18.60;87.60
55207;DHT22;41079;52.856;6.534;2022-09-20T14:28:45;17.50;85.40
55207;DHT22;41079;52.856;6.534;2022-09-20T14:31:31;17.00;88.60
55207;DHT22;41079;52.856;6.534;2022-09-20T14:34:01;16.60;90.00
55207;DHT22;41079;52.856;6.534;2022-09-20T14:36:29;16.40;90.80
55207;DHT22;41079;52.856;6.534;2022-09-20T14:39:00;16.10;91.40
55207;DHT22;41079;52.856;6.534;2022-09-20T14:41:33;15.90;91.90
55207;DHT22;41079;52.856;6.534;2022-09-20T14:44:01;15.70;92.20
55207;DHT22;41079;52.856;6.534;2022-09-20T14:46:35;15.60;92.40
55207;DHT22;41079;52.856;6.534;2022-09-20T14:52:20;15.50;92.70
55207;DHT22;41079;52.856;6.534;2022-09-20T14:54:39;15.70;93.50
55207;DHT22;41079;52.856;6.534;2022-09-20T14:57:05;16.20;93.00
55207;DHT22;41079;52.856;6.534;2022-09-20T14:59:41;16.70;92.50
55207;DHT22;41079;52.856;6.534;2022-09-20T15:04:34;17.60;90.70
55207;DHT22;41079;52.856;6.534;2022-09-20T15:07:04;18.00;90.70
55207;DHT22;41079;52.856;6.534;2022-09-20T15:09:31;18.40;91.70
55207;DHT22;41079;52.856;6.534;2022-09-20T15:12:11;18.60;90.80
55207;DHT22;41079;52.856;6.534;2022-09-20T15:14:37;18.60;90.70
55207;DHT22;41079;52.856;6.534;2022-09-20T15:17:05;18.30;89.80
55207;DHT22;41079;52.856;6.534;2022-09-20T15:19:30;17.80;90.70
55207;DHT22;41079;52.856;6.534;2022-09-20T15:21:56;17.50;90.80
55207;DHT22;41079;52.856;6.534;2022-09-20T15:24:22;17.10;91.70
55207;DHT22;41079;52.856;6.534;2022-09-20T15:26:47;16.90;92.70
55207;DHT22;41079;52.856;6.534;2022-09-20T15:29:17;16.70;92.90
55207;DHT22;41079;52.856;6.534;2022-09-20T15:31:46;16.50;93.60
55207;DHT22;41079;52.856;6.534;2022-09-20T15:34:12;16.40;94.30
55207;DHT22;41079;52.856;6.534;2022-09-20T15:36:39;16.20;94.50
55207;DHT22;41079;52.856;6.534;2022-09-20T15:39:05;16.10;94.60
55207;DHT22;41079;52.856;6.534;2022-09-20T15:41:31;16.10;94.80
55207;DHT22;41079;52.856;6.534;2022-09-20T15:43:57;16.00;95.00
55207;DHT22;41079;52.856;6.534;2022-09-20T15:46:24;15.80;95.80
55207;DHT22;41079;52.856;6.534;2022-09-20T15:48:53;15.80;95.40
55207;DHT22;41079;52.856;6.534;2022-09-20T15:51:19;15.70;95.30
55207;DHT22;41079;52.856;6.534;2022-09-20T15:53:52;15.80;94.30
55207;DHT22;41079;52.856;6.534;2022-09-20T15:56:23;15.90;94.90
55207;DHT22;41079;52.856;6.534;2022-09-20T15:58:51;16.10;94.70
55207;DHT22;41079;52.856;6.534;2022-09-20T16:01:31;16.40;94.30
55207;DHT22;41079;52.856;6.534;2022-09-20T16:03:57;16.60;93.90
55207;DHT22;41079;52.856;6.534;2022-09-20T16:06:24;16.70;94.00
55207;DHT22;41079;52.856;6.534;2022-09-20T16:08:50;16.70;93.90
55207;DHT22;41079;52.856;6.534;2022-09-20T16:11:18;16.50;93.80
55207;DHT22;41079;52.856;6.534;2022-09-20T16:13:55;16.20;93.90
55207;DHT22;41079;52.856;6.534;2022-09-20T16:16:21;15.90;94.80
55207;DHT22;41079;52.856;6.534;2022-09-20T16:18:47;15.80;96.40
55207;DHT22;41079;52.856;6.534;2022-09-20T16:21:31;15.90;97.20
55207;DHT22;41079;52.856;6.534;2022-09-20T16:23:57;16.00;97.70
55207;DHT22;41079;52.856;6.534;2022-09-20T16:26:25;16.00;96.70
55207;DHT22;41079;52.856;6.534;2022-09-20T16:28:51;15.80;97.50
55207;DHT22;41079;52.856;6.534;2022-09-20T16:31:38;15.60;97.90
55207;DHT22;41079;52.856;6.534;2022-09-20T16:36:46;15.20;99.20
55207;DHT22;41079;52.856;6.534;2022-09-20T16:39:14;15.00;99.70
55207;DHT22;41079;52.856;6.534;2022-09-20T16:41:41;14.90;99.70
55207;DHT22;41079;52.856;6.534;2022-09-20T16:44:08;14.80;99.90
55207;DHT22;41079;52.856;6.534;2022-09-20T16:46:34;14.60;99.90
55207;DHT22;41079;52.856;6.534;2022-09-20T16:49:03;14.60;99.90
55207;DHT22;41079;52.856;6.534;2022-09-20T16:51:33;14.40;99.90
55207;DHT22;41079;52.856;6.534;2022-09-20T16:54:06;14.30;99.90
55207;DHT22;41079;52.856;6.534;2022-09-20T16:56:36;14.10;99.90
55207;DHT22;41079;52.856;6.534;2022-09-20T16:59:04;14.10;99.90
55207;DHT22;41079;52.856;6.534;2022-09-20T17:01:30;14.00;99.90
55207;DHT22;41079;52.856;6.534;2022-09-20T17:03:57;13.90;99.90
55207;DHT22;41079;52.856;6.534;2022-09-20T17:06:23;13.90;99.90
55207;DHT22;41079;52.856;6.534;2022-09-20T17:08:54;13.70;99.90
55207;DHT22;41079;52.856;6.534;2022-09-20T17:11:21;13.60;99.90
55207;DHT22;41079;52.856;6.534;2022-09-20T17:13:49;13.50;99.90
55207;DHT22;41079;52.856;6.534;2022-09-20T17:16:36;13.40;99.90
55207;DHT22;41079;52.856;6.534;2022-09-20T17:19:05;13.30;99.90
55207;DHT22;41079;52.856;6.534;2022-09-20T17:21:36;13.20;99.90
55207;DHT22;41079;52.856;6.534;2022-09-20T17:24:03;13.00;99.90
55207;DHT22;41079;52.856;6.534;2022-09-20T17:26:35;12.90;99.90
55207;DHT22;41079;52.856;6.534;2022-09-20T17:29:04;12.80;99.90
55207;DHT22;41079;52.856;6.534;2022-09-20T17:31:33;12.70;99.90
55207;DHT22;41079;52.856;6.534;2022-09-20T17:34:00;12.60;99.90
55207;DHT22;41079;52.856;6.534;2022-09-20T17:36:32;12.60;99.90
55207;DHT22;41079;52.856;6.534;2022-09-20T17:38:59;12.60;99.90
55207;DHT22;41079;52.856;6.534;2022-09-20T17:41:26;12.60;99.90
55207;DHT22;41079;52.856;6.534;2022-09-20T17:43:54;12.60;99.90
55207;DHT22;41079;52.856;6.534;2022-09-20T17:46:28;12.60;99.90
55207;DHT22;41079;52.856;6.534;2022-09-20T17:48:57;12.60;99.90
55207;DHT22;41079;52.856;6.534;2022-09-20T17:51:36;12.60;99.90
55207;DHT22;41079;52.856;6.534;2022-09-20T17:54:02;12.60;99.90
55207;DHT22;41079;52.856;6.534;2022-09-20T17:56:28;12.60;99.90
55207;DHT22;41079;52.856;6.534;2022-09-20T17:59:02;12.60;99.90
55207;DHT22;41079;52.856;6.534;2022-09-20T18:01:29;12.60;99.90
55207;DHT22;41079;52.856;6.534;2022-09-20T18:03:56;12.60;99.90
55207;DHT22;41079;52.856;6.534;2022-09-20T18:06:23;12.50;99.90
55207;DHT22;41079;52.856;6.534;2022-09-20T18:08:52;12.40;99.90
55207;DHT22;41079;52.856;6.534;2022-09-20T18:11:19;12.40;99.90
55207;DHT22;41079;52.856;6.534;2022-09-20T18:13:45;12.40;99.90
55207;DHT22;41079;52.856;6.534;2022-09-20T18:16:13;12.30;99.90
55207;DHT22;41079;52.856;6.534;2022-09-20T18:18:39;12.30;99.90
55207;DHT22;41079;52.856;6.534;2022-09-20T18:21:19;12.30;99.90
55207;DHT22;41079;52.856;6.534;2022-09-20T18:23:46;12.30;99.90
55207;DHT22;41079;52.856;6.534;2022-09-20T18:26:14;12.20;99.90
55207;DHT22;41079;52.856;6.534;2022-09-20T18:28:50;12.20;99.90
55207;DHT22;41079;52.856;6.534;2022-09-20T18:31:16;12.10;99.90
55207;DHT22;41079;52.856;6.534;2022-09-20T18:33:43;12.00;99.90
55207;DHT22;41079;52.856;6.534;2022-09-20T18:36:08;12.00;99.90
55207;DHT22;41079;52.856;6.534;2022-09-20T18:38:34;11.90;99.90
55207;DHT22;41079;52.856;6.534;2022-09-20T18:41:00;11.80;99.90
55207;DHT22;41079;52.856;6.534;2022-09-20T18:43:28;11.90;99.90
55207;DHT22;41079;52.856;6.534;2022-09-20T18:45:55;11.80;99.90
55207;DHT22;41079;52.856;6.534;2022-09-20T18:48:22;11.80;99.90
55207;DHT22;41079;52.856;6.534;2022-09-20T18:51:04;11.80;99.90
55207;DHT22;41079;52.856;6.534;2022-09-20T18:53:32;11.80;99.90
55207;DHT22;41079;52.856;6.534;2022-09-20T18:56:19;11.80;99.90
55207;DHT22;41079;52.856;6.534;2022-09-20T18:58:45;11.80;99.90
55207;DHT22;41079;52.856;6.534;2022-09-20T19:09:51;11.70;99.90
55207;DHT22;41079;52.856;6.534;2022-09-20T19:20:58;11.70;99.90
55207;DHT22;41079;52.856;6.534;2022-09-20T19:26:26;11.60;99.90
55207;DHT22;41079;52.856;6.534;2022-09-20T19:28:56;11.60;99.90
55207;DHT22;41079;52.856;6.534;2022-09-20T19:31:29;11.60;99.90
55207;DHT22;41079;52.856;6.534;2022-09-20T19:33:56;11.60;99.90
55207;DHT22;41079;52.856;6.534;2022-09-20T19:36:31;11.60;99.90
55207;DHT22;41079;52.856;6.534;2022-09-20T19:39:12;11.50;99.90
55207;DHT22;41079;52.856;6.534;2022-09-20T19:41:57;11.50;99.90
55207;DHT22;41079;52.856;6.534;2022-09-20T19:44:59;11.40;99.90
55207;DHT22;41079;52.856;6.534;2022-09-20T19:50:17;11.20;99.90
55207;DHT22;41079;52.856;6.534;2022-09-20T19:52:52;11.10;99.90
55207;DHT22;41079;52.856;6.534;2022-09-20T19:55:18;11.00;99.90
55207;DHT22;41079;52.856;6.534;2022-09-20T19:57:45;11.00;99.90
55207;DHT22;41079;52.856;6.534;2022-09-20T20:00:19;10.90;99.90
55207;DHT22;41079;52.856;6.534;2022-09-20T20:02:45;10.80;99.90
55207;DHT22;41079;52.856;6.534;2022-09-20T20:05:16;10.70;99.90
55207;DHT22;41079;52.856;6.534;2022-09-20T20:08:12;10.70;99.90
55207;DHT22;41079;52.856;6.534;2022-09-20T20:10:49;10.60;99.90
55207;DHT22;41079;52.856;6.534;2022-09-20T20:13:31;10.50;99.90
55207;DHT22;41079;52.856;6.534;2022-09-20T20:16:27;10.30;99.90
55207;DHT22;41079;52.856;6.534;2022-09-20T20:24:56;10.10;99.90
55207;DHT22;41079;52.856;6.534;2022-09-20T20:27:24;10.00;99.90
55207;DHT22;41079;52.856;6.534;2022-09-20T20:29:53;9.90;99.90
55207;DHT22;41079;52.856;6.534;2022-09-20T20:32:20;9.80;99.90
55207;DHT22;41079;52.856;6.534;2022-09-20T20:34:46;9.80;99.90
55207;DHT22;41079;52.856;6.534;2022-09-20T20:37:11;9.80;99.90
55207;DHT22;41079;52.856;6.534;2022-09-20T20:39:37;9.70;99.90
55207;DHT22;41079;52.856;6.534;2022-09-20T20:42:04;9.60;99.90
55207;DHT22;41079;52.856;6.534;2022-09-20T20:44:31;9.40;99.90
55207;DHT22;41079;52.856;6.534;2022-09-20T20:47:04;9.40;99.90
55207;DHT22;41079;52.856;6.534;2022-09-20T20:49:30;9.30;99.90
55207;DHT22;41079;52.856;6.534;2022-09-20T20:51:56;9.30;99.90
55207;DHT22;41079;52.856;6.534;2022-09-20T20:54:22;9.30;99.90
55207;DHT22;41079;52.856;6.534;2022-09-20T20:56:47;9.20;99.90
55207;DHT22;41079;52.856;6.534;2022-09-20T20:59:13;9.20;99.90
55207;DHT22;41079;52.856;6.534;2022-09-20T21:01:40;9.10;99.90
55207;DHT22;41079;52.856;6.534;2022-09-20T21:04:12;9.20;99.90
55207;DHT22;41079;52.856;6.534;2022-09-20T21:06:39;9.10;99.90
55207;DHT22;41079;52.856;6.534;2022-09-20T21:09:09;9.00;99.90
55207;DHT22;41079;52.856;6.534;2022-09-20T21:11:38;9.00;99.90
55207;DHT22;41079;52.856;6.534;2022-09-20T21:14:05;8.90;99.90
55207;DHT22;41079;52.856;6.534;2022-09-20T21:16:37;8.90;99.90
55207;DHT22;41079;52.856;6.534;2022-09-20T21:19:04;8.80;99.90
55207;DHT22;41079;52.856;6.534;2022-09-20T21:21:38;8.80;99.90